createdAt,value
2022-11-24T00:01:52.274Z,99886.68
2022-11-24T00:04:22.514Z,99890.93
2022-11-24T00:06:53.137Z,99895.95
2022-11-24T00:09:21.923Z,99900.52
2022-11-24T00:11:50.386Z,99903.94
2022-11-24T00:14:19.694Z,99902.40
2022-11-24T00:16:48.476Z,99905.42
2022-11-24T00:19:19.964Z,99903.34
2022-11-24T00:21:49.758Z,99908.38
2022-11-24T00:24:18.564Z,99906.39
2022-11-24T00:26:52.922Z,99902.88
2022-11-24T00:29:21.670Z,99897.24
2022-11-24T00:31:55.167Z,99893.75
2022-11-24T00:34:24.228Z,99896.64
2022-11-24T00:36:52.870Z,99901.16
2022-11-24T00:39:22.760Z,99905.38
2022-11-24T00:41:57.226Z,99898.15
2022-11-24T00:44:26.007Z,99894.66
2022-11-24T00:46:55.075Z,99895.48
2022-11-24T00:49:24.039Z,99901.45
2022-11-24T00:51:55.514Z,99907.90
2022-11-24T00:54:24.451Z,99903.70
2022-11-24T00:56:58.392Z,99898.65
2022-11-24T00:59:27.968Z,99899.31
2022-11-24T01:01:56.543Z,99896.65
2022-11-24T01:04:25.438Z,99889.15
2022-11-24T01:06:54.097Z,99893.17
2022-11-24T01:09:26.595Z,99891.25
2022-11-24T01:12:01.819Z,99894.14
2022-11-24T01:14:33.400Z,99890.86
2022-11-24T01:17:05.606Z,99889.62
2022-11-24T01:19:34.626Z,99894.38
2022-11-24T01:22:02.998Z,99894.58
2022-11-24T01:24:32.109Z,99890.27
2022-11-24T01:27:01.194Z,99898.73
2022-11-24T01:29:30.294Z,99897.59
2022-11-24T01:31:58.981Z,99898.98
2022-11-24T01:34:27.674Z,99897.78
2022-11-24T01:36:59.676Z,99897.84
2022-11-24T01:39:30.307Z,99897.10
2022-11-24T01:42:02.316Z,99893.03
2022-11-24T01:44:31.983Z,99894.65
2022-11-24T01:47:02.881Z,99897.64
2022-11-24T01:49:40.556Z,99898.30
2022-11-24T01:52:16.521Z,99893.88
2022-11-24T01:54:48.172Z,99895.68
2022-11-24T01:57:23.718Z,99892.21
2022-11-24T01:59:57.004Z,99900.96
2022-11-24T02:02:31.777Z,99895.08
2022-11-24T02:05:08.121Z,99895.33
2022-11-24T02:07:37.990Z,99893.38
2022-11-24T02:10:13.470Z,99895.89
2022-11-24T02:12:47.777Z,99894.90
2022-11-24T02:15:20.364Z,99896.52
2022-11-24T02:17:50.423Z,99896.64
2022-11-24T02:20:22.561Z,99894.27
2022-11-24T02:22:57.092Z,99896.08
2022-11-24T02:25:34.312Z,99893.88
2022-11-24T02:28:20.003Z,99894.73
2022-11-24T02:30:49.871Z,99892.84
2022-11-24T02:33:21.050Z,99887.70
2022-11-24T02:35:52.201Z,99889.75
2022-11-24T02:38:30.669Z,99886.02
2022-11-24T02:41:02.331Z,99886.16
2022-11-24T02:43:35.603Z,99887.02
2022-11-24T02:46:04.200Z,99886.38
2022-11-24T02:48:33.219Z,99886.35
2022-11-24T02:51:01.889Z,99883.59
2022-11-24T02:53:30.701Z,99887.24
2022-11-24T02:55:59.373Z,99887.84
2022-11-24T02:58:27.813Z,99886.69
2022-11-24T03:00:56.851Z,99885.87
2022-11-24T03:03:25.872Z,99883.54
2022-11-24T03:05:54.632Z,99880.23
2022-11-24T03:08:23.787Z,99885.56
2022-11-24T03:10:52.715Z,99884.27
2022-11-24T03:13:21.158Z,99888.35
2022-11-24T03:15:49.985Z,99890.59
2022-11-24T03:18:18.763Z,99893.64
2022-11-24T03:20:47.257Z,99893.31
2022-11-24T03:23:16.150Z,99888.38
2022-11-24T03:25:47.365Z,99894.80
2022-11-24T03:28:15.698Z,99891.10
2022-11-24T03:30:44.012Z,99887.58
2022-11-24T03:33:12.819Z,99890.10
2022-11-24T03:35:42.951Z,99892.71
2022-11-24T03:38:11.676Z,99893.14
2022-11-24T03:40:40.155Z,99897.04
2022-11-24T03:43:08.504Z,99896.82
2022-11-24T03:45:45.967Z,99900.98
2022-11-24T03:48:20.704Z,99901.54
2022-11-24T03:50:55.333Z,99903.17
2022-11-24T03:53:25.340Z,99908.44
2022-11-24T03:55:54.608Z,99908.69
2022-11-24T03:58:23.115Z,99907.83
2022-11-24T04:00:53.334Z,99910.67
2022-11-24T04:03:22.469Z,99913.16
2022-11-24T04:05:51.443Z,99907.83
2022-11-24T04:08:23.154Z,99909.88
2022-11-24T04:10:53.143Z,99914.50
2022-11-24T04:13:23.850Z,99916.20
2022-11-24T04:15:52.938Z,99913.48
2022-11-24T04:18:22.277Z,99909.89
2022-11-24T04:20:52.742Z,99906.55
2022-11-24T04:23:22.922Z,99906.98
2022-11-24T04:25:51.771Z,99900.88
2022-11-24T04:28:20.327Z,99899.58
2022-11-24T04:30:48.857Z,99903.10
2022-11-24T04:33:17.493Z,99907.74
2022-11-24T04:35:45.847Z,99908.48
2022-11-24T04:39:22.784Z,99910.82
2022-11-24T04:41:05.454Z,99914.34
2022-11-24T04:43:40.458Z,99921.05
2022-11-24T04:46:11.315Z,99923.30
2022-11-24T04:48:54.352Z,99927.05
2022-11-24T04:51:22.896Z,99931.79
2022-11-24T04:53:53.025Z,99932.04
2022-11-24T04:56:22.015Z,99933.39
2022-11-24T04:58:53.466Z,99932.47
2022-11-24T05:01:21.879Z,99931.24
2022-11-24T05:03:52.811Z,99928.94
2022-11-24T05:06:24.011Z,99932.70
2022-11-24T05:08:52.897Z,99936.55
2022-11-24T05:11:25.387Z,99936.20
2022-11-24T05:13:54.046Z,99936.04
2022-11-24T05:16:23.329Z,99941.13
2022-11-24T05:18:51.751Z,99941.66
2022-11-24T05:21:20.078Z,99942.36
2022-11-24T05:23:48.714Z,99945.22
2022-11-24T05:26:17.894Z,99944.59
2022-11-24T05:28:46.847Z,99947.52
2022-11-24T05:31:15.618Z,99946.27
2022-11-24T05:33:45.164Z,99949.20
2022-11-24T05:36:36.116Z,99953.84
2022-11-24T05:39:05.226Z,99951.89
2022-11-24T05:41:36.456Z,99949.63
2022-11-24T05:44:08.194Z,99952.77
2022-11-24T05:46:42.709Z,99960.61
2022-11-24T05:49:12.838Z,99963.05
2022-11-24T05:51:43.839Z,99965.06
2022-11-24T05:54:12.291Z,99967.17
2022-11-24T05:56:41.138Z,99967.83
2022-11-24T05:59:11.977Z,99972.11
2022-11-24T06:01:43.256Z,99973.05
2022-11-24T06:04:17.742Z,99968.45
2022-11-24T06:06:47.617Z,99971.43
2022-11-24T06:09:17.762Z,99971.02
2022-11-24T06:11:49.297Z,99971.57
2022-11-24T06:14:17.685Z,99971.99
2022-11-24T06:16:46.947Z,99975.62
2022-11-24T06:19:17.770Z,99981.66
2022-11-24T06:21:46.379Z,99981.59
2022-11-24T06:24:17.712Z,99983.91
2022-11-24T06:26:46.697Z,99986.38
2022-11-24T06:29:26.701Z,99984.75
2022-11-24T06:31:55.185Z,99984.04
2022-11-24T06:34:23.941Z,99987.64
2022-11-24T06:36:54.767Z,99987.47
2022-11-24T06:39:23.462Z,99984.08
2022-11-24T06:41:52.839Z,99985.73
2022-11-24T06:44:24.805Z,99982.81
2022-11-24T06:46:56.115Z,99983.11
2022-11-24T06:49:24.548Z,99984.02
2022-11-24T06:51:55.664Z,99989.25
2022-11-24T06:54:24.577Z,99994.86
2022-11-24T06:56:57.042Z,99996.86
2022-11-24T06:59:26.361Z,99996.23
2022-11-24T07:01:54.817Z,99994.84
2022-11-24T07:04:24.627Z,99991.58
2022-11-24T07:06:56.225Z,99989.77
2022-11-24T07:09:24.815Z,99995.80
2022-11-24T07:11:55.808Z,99998.08
2022-11-24T07:14:31.585Z,99995.96
2022-11-24T07:17:06.146Z,99997.67
2022-11-24T07:19:34.771Z,99996.81
2022-11-24T07:22:08.298Z,99995.21
2022-11-24T07:24:37.228Z,100002.80
2022-11-24T07:27:05.958Z,100006.75
2022-11-24T07:29:34.504Z,100012.98
2022-11-24T07:32:05.668Z,100016.31
2022-11-24T07:34:34.825Z,100017.34
2022-11-24T07:37:03.587Z,100014.58
2022-11-24T07:39:33.165Z,100014.63
2022-11-24T07:42:03.116Z,100017.52
2022-11-24T07:44:31.979Z,100016.15
2022-11-24T07:47:01.574Z,100015.61
2022-11-24T07:49:30.191Z,100011.92
2022-11-24T07:52:00.233Z,100008.55
2022-11-24T07:54:31.039Z,100008.36
2022-11-24T07:56:59.495Z,100012.15
2022-11-24T07:59:28.110Z,100011.31
2022-11-24T08:01:57.172Z,100018.07
2022-11-24T08:04:26.028Z,100027.91
2022-11-24T08:06:54.402Z,100031.48
2022-11-24T08:09:23.245Z,100028.36
2022-11-24T08:11:52.587Z,100028.98
2022-11-24T08:14:21.029Z,100035.58
2022-11-24T08:16:58.229Z,100033.68
2022-11-24T08:19:28.172Z,100032.48
2022-11-24T08:21:56.747Z,100032.70
2022-11-24T08:24:26.443Z,100034.01
2022-11-24T08:26:54.899Z,100034.58
2022-11-24T08:29:29.029Z,100033.28
2022-11-24T08:31:58.032Z,100032.12
2022-11-24T08:34:27.410Z,100029.35
2022-11-24T08:36:58.277Z,100034.98
2022-11-24T08:39:26.842Z,100034.80
2022-11-24T08:41:56.863Z,100039.49
2022-11-24T08:44:28.011Z,100043.61
2022-11-24T08:46:57.212Z,100044.19
2022-11-24T08:49:26.420Z,100038.92
2022-11-24T08:51:57.445Z,100040.47
2022-11-24T08:54:27.470Z,100038.06
2022-11-24T08:56:57.267Z,100039.89
2022-11-24T08:59:26.315Z,100039.66
2022-11-24T09:01:54.926Z,100042.69
2022-11-24T09:04:23.585Z,100044.73
2022-11-24T09:06:52.042Z,100043.98
2022-11-24T09:09:22.083Z,100045.52
2022-11-24T09:11:50.614Z,100045.77
2022-11-24T09:14:19.445Z,100045.30
2022-11-24T09:16:51.441Z,100045.63
2022-11-24T09:19:21.634Z,100054.35
2022-11-24T09:21:50.891Z,100059.39
2022-11-24T09:24:21.484Z,100059.90
2022-11-24T09:26:50.238Z,100060.66
2022-11-24T09:29:19.313Z,100063.54
2022-11-24T09:31:52.238Z,100066.17
2022-11-24T09:34:21.717Z,100066.77
2022-11-24T09:36:58.135Z,100069.15
2022-11-24T09:39:26.997Z,100073.66
2022-11-24T09:42:12.333Z,100078.19
2022-11-24T09:44:59.657Z,100081.59
2022-11-24T09:47:39.050Z,100082.66
2022-11-24T09:50:15.153Z,100081.31
2022-11-24T09:52:50.307Z,100084.35
2022-11-24T09:55:34.439Z,100089.55
2022-11-24T09:58:24.247Z,100089.14
2022-11-24T10:00:55.520Z,100088.17
2022-11-24T10:03:32.077Z,100085.89
2022-11-24T10:06:06.571Z,100084.16
2022-11-24T10:08:53.787Z,100083.46
2022-11-24T10:11:35.513Z,100074.06
2022-11-24T10:14:34.839Z,100078.14
2022-11-24T10:17:12.522Z,100084.05
2022-11-24T10:19:45.790Z,100084.98
2022-11-24T10:22:30.352Z,100081.34
2022-11-24T10:25:24.318Z,100078.92
2022-11-24T10:27:57.198Z,100077.19
2022-11-24T10:30:27.955Z,100075.90
2022-11-24T10:33:00.409Z,100072.52
2022-11-24T10:35:37.354Z,100072.19
2022-11-24T10:38:16.233Z,100071.73
2022-11-24T10:40:57.018Z,100075.11
2022-11-24T10:43:27.772Z,100076.20
2022-11-24T10:46:00.472Z,100074.04
2022-11-24T10:48:37.083Z,100072.50
2022-11-24T10:51:43.868Z,100074.26
2022-11-24T10:54:17.078Z,100078.91
2022-11-24T10:56:50.174Z,100079.90
2022-11-24T10:59:36.950Z,100079.63
2022-11-24T11:02:29.567Z,100078.30
2022-11-24T11:05:19.875Z,100077.94
2022-11-24T11:07:48.349Z,100077.95
2022-11-24T11:10:21.587Z,100077.93
2022-11-24T11:12:50.165Z,100073.64
2022-11-24T11:15:30.053Z,100074.02
2022-11-24T11:18:00.435Z,100075.04
2022-11-24T11:20:31.387Z,100069.23
2022-11-24T11:23:13.444Z,100071.79
2022-11-24T11:25:43.213Z,100074.79
2022-11-24T11:28:23.125Z,100082.31
2022-11-24T11:31:16.809Z,100088.58
2022-11-24T11:34:06.193Z,100088.08
2022-11-24T11:36:41.342Z,100088.89
2022-11-24T11:39:22.727Z,100094.23
2022-11-24T11:41:55.559Z,100094.64
2022-11-24T11:44:34.926Z,100101.02
2022-11-24T11:47:14.024Z,100101.31
2022-11-24T11:49:44.669Z,100104.38
2022-11-24T11:52:40.445Z,100105.81
2022-11-24T11:55:25.284Z,100106.75
2022-11-24T11:58:03.393Z,100105.77
2022-11-24T12:00:36.361Z,100105.05
2022-11-24T12:03:41.590Z,100106.02
2022-11-24T12:06:23.487Z,100106.55
2022-11-24T12:12:12.776Z,100108.16
2022-11-24T12:14:48.811Z,100106.36
2022-11-24T12:17:28.600Z,100102.64
2022-11-24T12:20:13.955Z,100102.64
2022-11-24T12:22:48.222Z,100099.66
2022-11-24T12:25:26.215Z,100094.84
2022-11-24T12:28:08.736Z,100095.33
2022-11-24T12:30:46.936Z,100091.27
2022-11-24T12:33:57.909Z,100090.67
2022-11-24T12:36:50.052Z,100089.98
2022-11-24T12:39:31.501Z,100093.41
2022-11-24T12:42:09.710Z,100092.91
2022-11-24T12:45:18.224Z,100092.02
2022-11-24T12:48:12.667Z,100091.05
2022-11-24T12:50:45.561Z,100087.80
2022-11-24T12:53:17.065Z,100088.90
2022-11-24T12:55:46.921Z,100092.04
2022-11-24T12:58:25.290Z,100095.98
2022-11-24T13:01:16.243Z,100096.42
2022-11-24T13:03:56.959Z,100093.80
2022-11-24T13:06:36.453Z,100094.34
2022-11-24T13:09:12.673Z,100093.90
2022-11-24T13:11:45.708Z,100094.74
2022-11-24T13:14:18.201Z,100097.20
2022-11-24T13:17:21.896Z,100096.61
2022-11-24T13:19:43.215Z,100097.13
2022-11-24T13:22:16.708Z,100094.70
2022-11-24T13:24:45.503Z,100093.02
2022-11-24T13:27:27.879Z,100093.27
2022-11-24T13:29:58.011Z,100093.05
2022-11-24T13:32:46.929Z,100093.75
2022-11-24T13:35:16.383Z,100094.42
2022-11-24T13:37:52.187Z,100094.38
2022-11-24T13:40:45.903Z,100094.73
2022-11-24T13:43:26.107Z,100094.19
2022-11-24T13:45:55.222Z,100097.80
2022-11-24T13:48:59.284Z,100097.58
2022-11-24T13:51:28.119Z,100098.55
2022-11-24T13:54:00.464Z,100096.98
2022-11-24T13:56:31.056Z,100097.61
2022-11-24T13:59:02.876Z,100099.95
2022-11-24T14:01:32.663Z,100105.33
2022-11-24T14:04:35.246Z,100107.42
2022-11-24T14:07:09.200Z,100114.71
2022-11-24T14:09:43.599Z,100116.94
2022-11-24T14:12:21.064Z,100119.48
2022-11-24T14:14:55.268Z,100120.21
2022-11-24T14:17:27.900Z,100120.02
2022-11-24T14:19:58.079Z,100115.63
2022-11-24T14:22:40.520Z,100116.88
2022-11-24T14:25:26.423Z,100122.21
2022-11-24T14:27:55.291Z,100129.26
2022-11-24T14:30:24.942Z,100134.86
2022-11-24T14:32:58.095Z,100140.05
2022-11-24T14:35:29.418Z,100139.93
2022-11-24T14:38:00.009Z,100143.89
2022-11-24T14:40:40.648Z,100144.16
2022-11-24T14:43:20.241Z,100150.08
2022-11-24T14:45:54.932Z,100145.66
2022-11-24T14:48:28.349Z,100145.61
2022-11-24T14:51:11.568Z,100149.45
2022-11-24T14:53:43.559Z,100147.27
2022-11-24T14:56:26.130Z,100149.89
2022-11-24T14:58:56.752Z,100153.80
2022-11-24T15:01:32.315Z,100155.02
2022-11-24T15:04:46.435Z,100152.67
2022-11-24T15:07:21.245Z,100155.33
2022-11-24T15:09:52.530Z,100157.13
2022-11-24T15:12:28.173Z,100156.23
2022-11-24T15:15:00.656Z,100162.44
2022-11-24T15:17:30.156Z,100164.13
2022-11-24T15:20:02.648Z,100168.14
2022-11-24T15:22:41.477Z,100170.67
2022-11-24T15:25:36.772Z,100177.43
2022-11-24T15:28:11.428Z,100180.37
2022-11-24T15:30:40.169Z,100180.08
2022-11-24T15:33:15.161Z,100180.58
2022-11-24T15:35:44.633Z,100184.33
2022-11-24T15:38:16.766Z,100186.54
2022-11-24T15:40:48.130Z,100191.56
2022-11-24T15:43:28.509Z,100193.73
2022-11-24T15:45:59.062Z,100195.07
2022-11-24T15:48:28.275Z,100200.02
2022-11-24T15:50:57.954Z,100197.41
2022-11-24T15:53:31.126Z,100197.81
2022-11-24T15:56:01.771Z,100198.39
2022-11-24T15:58:30.294Z,100199.15
2022-11-24T16:00:58.908Z,100195.86
2022-11-24T16:03:57.371Z,100199.48
2022-11-24T16:06:24.127Z,100198.77
2022-11-24T16:11:37.199Z,100199.44
2022-11-24T16:14:05.770Z,100207.16
2022-11-24T16:16:41.011Z,100208.37
2022-11-24T16:19:10.163Z,100209.89
2022-11-24T16:21:38.707Z,100208.91
2022-11-24T16:24:08.010Z,100214.44
2022-11-24T16:26:36.419Z,100216.98
2022-11-24T16:29:04.869Z,100222.43
2022-11-24T16:31:37.924Z,100226.17
2022-11-24T16:34:07.152Z,100227.89
2022-11-24T16:36:38.641Z,100227.16
2022-11-24T16:39:07.258Z,100229.83
2022-11-24T16:41:37.820Z,100229.84
2022-11-24T16:44:09.929Z,100231.05
2022-11-24T16:46:40.996Z,100235.36
2022-11-24T16:49:09.710Z,100234.98
2022-11-24T16:51:38.320Z,100235.54
2022-11-24T16:54:06.902Z,100239.84
2022-11-24T16:56:36.220Z,100239.73
2022-11-24T16:59:04.567Z,100245.77
2022-11-24T17:01:36.116Z,100242.02
2022-11-24T17:04:09.584Z,100245.90
2022-11-24T17:06:43.756Z,100246.92
2022-11-24T17:09:16.631Z,100249.61
2022-11-24T17:11:53.415Z,100250.86
2022-11-24T17:14:26.084Z,100254.29
2022-11-24T17:16:58.561Z,100259.89
2022-11-24T17:19:34.100Z,100263.58
2022-11-24T17:22:07.623Z,100265.10
2022-11-24T17:24:52.994Z,100265.21
2022-11-24T17:27:24.369Z,100267.20
2022-11-24T17:29:53.179Z,100269.89
2022-11-24T17:32:24.496Z,100273.17
2022-11-24T17:34:53.564Z,100276.52
2022-11-24T17:37:22.901Z,100282.95
2022-11-24T17:40:12.926Z,100283.98
2022-11-24T17:42:40.416Z,100284.45
2022-11-24T17:45:10.660Z,100290.45
2022-11-24T17:47:39.271Z,100289.67
2022-11-24T17:50:10.274Z,100294.33
2022-11-24T17:52:39.059Z,100301.57
2022-11-24T17:55:09.782Z,100301.71
2022-11-24T17:57:38.686Z,100300.64
2022-11-24T18:00:09.271Z,100305.21
2022-11-24T18:02:41.083Z,100308.94
2022-11-24T18:05:10.265Z,100312.11
2022-11-24T18:07:38.771Z,100312.91
2022-11-24T18:10:09.316Z,100313.89
2022-11-24T18:12:37.994Z,100315.45
2022-11-24T18:15:08.713Z,100317.11
2022-11-24T18:17:39.173Z,100322.76
2022-11-24T18:20:10.157Z,100317.90
2022-11-24T18:25:29.456Z,100315.10
2022-11-24T18:27:58.344Z,100315.14
2022-11-24T18:30:27.115Z,100313.58
2022-11-24T18:32:57.867Z,100315.31
2022-11-24T18:35:26.363Z,100321.23
2022-11-24T18:37:55.044Z,100321.89
2022-11-24T18:40:29.188Z,100321.29
2022-11-24T18:42:58.585Z,100319.80
2022-11-24T18:45:27.359Z,100319.28
2022-11-24T18:47:56.107Z,100316.05
2022-11-24T18:50:24.959Z,100315.88
2022-11-24T18:52:54.326Z,100311.97
2022-11-24T18:55:25.772Z,100317.89
2022-11-24T18:57:54.770Z,100315.77
2022-11-24T19:00:24.284Z,100315.17
2022-11-24T19:02:53.755Z,100317.83
2022-11-24T19:05:23.509Z,100317.40
2022-11-24T19:07:54.691Z,100317.08
2022-11-24T19:10:23.676Z,100316.44
2022-11-24T19:12:52.331Z,100317.55
2022-11-24T19:15:21.035Z,100327.36
2022-11-24T19:17:50.554Z,100329.46
2022-11-24T19:20:19.281Z,100332.34
2022-11-24T19:22:47.970Z,100331.42
2022-11-24T19:25:18.429Z,100332.12
2022-11-24T19:27:47.143Z,100330.55
2022-11-24T19:30:17.029Z,100330.10
2022-11-24T19:32:46.090Z,100327.39
2022-11-24T19:35:15.089Z,100327.70
2022-11-24T19:37:44.045Z,100323.77
2022-11-24T19:40:14.782Z,100324.13
2022-11-24T19:42:43.599Z,100326.52
2022-11-24T19:45:13.205Z,100328.27
2022-11-24T19:47:41.736Z,100332.48
2022-11-24T19:50:12.669Z,100331.30
2022-11-24T19:52:41.221Z,100333.62
2022-11-24T19:55:10.468Z,100336.20
2022-11-24T19:57:39.111Z,100337.56
2022-11-24T20:00:15.211Z,100338.17
2022-11-24T20:02:44.262Z,100342.37
2022-11-24T20:05:13.357Z,100343.47
2022-11-24T20:07:41.711Z,100345.89
2022-11-24T20:10:11.257Z,100345.98
2022-11-24T20:12:39.808Z,100346.92
2022-11-24T20:15:13.316Z,100353.33
2022-11-24T20:17:42.514Z,100355.82
2022-11-24T20:20:16.436Z,100351.61
2022-11-24T20:22:45.975Z,100356.52
2022-11-24T20:25:15.531Z,100358.42
2022-11-24T20:27:46.386Z,100359.48
2022-11-24T20:30:15.384Z,100363.70
2022-11-24T20:32:44.010Z,100361.55
2022-11-24T20:35:18.040Z,100366.75
2022-11-24T20:37:47.334Z,100367.64
2022-11-24T20:40:16.201Z,100369.29
2022-11-24T20:42:47.637Z,100369.12
2022-11-24T20:45:16.353Z,100374.73
2022-11-24T20:47:45.035Z,100375.48
2022-11-24T20:50:13.957Z,100379.21
2022-11-24T20:52:42.877Z,100381.13
2022-11-24T20:55:15.186Z,100382.55
2022-11-24T20:57:47.673Z,100387.30
2022-11-24T21:00:17.732Z,100389.57
2022-11-24T21:02:46.485Z,100390.60
2022-11-24T21:05:15.226Z,100394.52
2022-11-24T21:07:43.698Z,100393.56
2022-11-24T21:10:12.444Z,100399.52
2022-11-24T21:12:42.385Z,100399.64
2022-11-24T21:15:11.435Z,100400.34
2022-11-24T21:17:40.219Z,100398.43
2022-11-24T21:20:12.962Z,100403.61
2022-11-24T21:22:41.811Z,100405.45
2022-11-24T21:25:10.913Z,100411.77
2022-11-24T21:27:40.559Z,100412.91
2022-11-24T21:30:11.468Z,100413.13
2022-11-24T21:32:40.298Z,100414.67
2022-11-24T21:35:09.771Z,100415.60
2022-11-24T21:37:38.615Z,100420.67
2022-11-24T21:40:09.704Z,100418.30
2022-11-24T21:42:38.673Z,100415.22
2022-11-24T21:45:11.330Z,100418.91
2022-11-24T21:47:41.977Z,100417.94
2022-11-24T21:50:12.092Z,100422.65
2022-11-24T21:52:40.995Z,100423.37
2022-11-24T21:55:10.145Z,100423.34
2022-11-24T21:57:39.085Z,100425.38
2022-11-24T22:00:09.480Z,100429.58
2022-11-24T22:02:38.348Z,100432.45
2022-11-24T22:05:09.001Z,100431.34
2022-11-24T22:07:40.789Z,100428.46
2022-11-24T22:10:11.196Z,100427.42
2022-11-24T22:12:39.720Z,100429.08
2022-11-24T22:15:09.819Z,100429.52
2022-11-24T22:17:38.622Z,100430.22
2022-11-24T22:20:10.782Z,100431.40
2022-11-24T22:22:39.438Z,100431.41
2022-11-24T22:25:11.962Z,100431.45
2022-11-24T22:27:40.825Z,100432.44
2022-11-24T22:30:11.416Z,100430.71
2022-11-24T22:32:40.020Z,100427.05
2022-11-24T22:35:10.039Z,100423.45
2022-11-24T22:37:38.830Z,100423.07
2022-11-24T22:40:09.647Z,100425.14
2022-11-24T22:42:38.248Z,100428.30
2022-11-24T22:45:11.392Z,100438.78
2022-11-24T22:47:41.239Z,100442.73
2022-11-24T22:50:17.644Z,100447.68
2022-11-24T22:52:46.220Z,100453.25
2022-11-24T22:55:16.243Z,100449.58
2022-11-24T22:57:52.298Z,100448.39
2022-11-24T23:00:25.561Z,100443.88
2022-11-24T23:02:55.426Z,100442.77
2022-11-24T23:05:25.996Z,100443.47
2022-11-24T23:07:55.028Z,100445.33
2022-11-24T23:10:25.925Z,100447.65
2022-11-24T23:12:55.470Z,100448.01
2022-11-24T23:15:24.170Z,100447.98
2022-11-24T23:17:52.458Z,100449.02
2022-11-24T23:20:23.151Z,100452.40
2022-11-24T23:22:55.654Z,100453.94
2022-11-24T23:25:24.798Z,100456.34
2022-11-24T23:27:53.078Z,100453.90
2022-11-24T23:30:24.300Z,100451.11
2022-11-24T23:32:53.860Z,100452.82
2022-11-24T23:35:23.441Z,100454.11
2022-11-24T23:38:07.123Z,100447.01
2022-11-24T23:40:36.762Z,100444.04
2022-11-24T23:43:09.200Z,100442.91
2022-11-24T23:45:38.066Z,100446.42
2022-11-24T23:48:09.015Z,100445.97
2022-11-24T23:50:37.368Z,100444.87
2022-11-24T23:53:06.019Z,100446.23
2022-11-24T23:55:34.325Z,100448.89
2022-11-24T23:58:09.085Z,100448.91
